Time;durP1;ratioP1;P1;durP2;ratioP2;P2;SDS_P1;SDS_P2;PMS_P1;PMS_P2;Temp;Humidity;BMP_temperature;BMP_pressure;BME280_temperature;BME280_humidity;BME280_pressure;Samples;Min_cycle;Max_cycle;Signal;HPM_P1;HPM_P2
2022/10/20 00:01:07;;;;;;;19.95;10.95;;;;;;;6.54;100.00;101547.09;4958903;28;20078;-79
2022/10/20 00:03:33;;;;;;;22.13;11.77;;;;;;;6.46;100.00;101548.47;4958741;28;20392;-79
2022/10/20 00:06:22;;;;;;;19.75;10.98;;;;;;;6.45;100.00;101555.38;4958555;28;20407;-81
2022/10/20 00:08:48;;;;;;;19.35;12.05;;;;;;;6.35;100.00;101545.03;4958949;28;20031;-80
2022/10/20 00:11:27;;;;;;;22.63;12.48;;;;;;;6.32;100.00;101554.41;4958634;28;20544;-80
2022/10/20 00:13:53;;;;;;;20.50;11.63;;;;;;;6.25;100.00;101560.97;4960239;28;20372;-80
2022/10/20 00:16:19;;;;;;;20.13;12.75;;;;;;;6.18;100.00;101551.81;4974776;28;20019;-80
2022/10/20 00:18:45;;;;;;;20.67;12.90;;;;;;;6.13;100.00;101553.09;4958399;28;20022;-80
2022/10/20 00:21:16;;;;;;;24.67;14.88;;;;;;;6.10;100.00;101548.28;4975693;28;20519;-79
2022/10/20 00:23:41;;;;;;;21.83;12.75;;;;;;;6.07;100.00;101545.50;4975726;28;20019;-80
2022/10/20 00:26:11;;;;;;;24.00;13.35;;;;;;;5.98;100.00;101542.41;4958325;28;20498;-81
2022/10/20 00:28:37;;;;;;;19.25;12.55;;;;;;;5.99;100.00;101541.19;4958341;28;20098;-80
2022/10/20 00:31:03;;;;;;;21.98;13.85;;;;;;;5.96;100.00;101540.00;4958392;28;20472;-80
2022/10/20 00:33:29;;;;;;;23.33;12.50;;;;;;;5.90;100.00;101540.91;4974400;28;20019;-81
2022/10/20 00:35:58;;;;;;;25.08;14.13;;;;;;;5.89;100.00;101545.00;4973992;28;20023;-80
2022/10/20 00:38:23;;;;;;;26.13;13.50;;;;;;;5.75;100.00;101529.81;4974293;28;20030;-80
2022/10/20 00:40:48;;;;;;;41.20;21.13;;;;;;;5.72;100.00;101525.00;4975444;28;20023;-81
2022/10/20 00:43:15;;;;;;;50.45;22.77;;;;;;;5.73;100.00;101540.78;4975742;28;20019;-80
2022/10/20 00:45:42;;;;;;;32.50;18.92;;;;;;;5.72;100.00;101542.03;4957734;28;20477;-78
2022/10/20 00:48:18;;;;;;;47.67;22.02;;;;;;;5.60;100.00;101525.59;4974852;28;20030;-81
2022/10/20 00:50:48;;;;;;;48.25;21.05;;;;;;;5.61;100.00;101537.75;4976352;28;20033;-80
2022/10/20 00:53:15;;;;;;;43.83;21.58;;;;;;;5.59;100.00;101535.34;4959971;28;20039;-79
2022/10/20 00:55:42;;;;;;;45.15;21.38;;;;;;;5.55;100.00;101540.25;4976407;28;20034;-80
2022/10/20 00:58:07;;;;;;;45.70;22.48;;;;;;;5.49;100.00;101532.66;4960301;28;20081;-79
2022/10/20 01:00:35;;;;;;;42.03;21.17;;;;;;;5.34;100.00;101507.38;4959731;28;20035;-80
2022/10/20 01:03:01;;;;;;;48.08;22.85;;;;;;;5.44;100.00;101530.31;4975867;28;20035;-79
2022/10/20 01:05:27;;;;;;;51.03;22.00;;;;;;;5.29;100.00;101510.69;4976084;28;20042;-80
2022/10/20 01:08:05;;;;;;;46.05;22.83;;;;;;;5.30;100.00;101520.00;4959638;28;20030;-81
2022/10/20 01:11:06;;;;;;;46.22;23.42;;;;;;;5.32;100.00;101531.69;4976800;28;20027;-80
2022/10/20 01:13:54;;;;;;;49.33;21.95;;;;;;;4.94;100.00;101465.88;4934686;29;20076;-81
2022/10/20 01:17:02;;;;;;;45.08;20.08;;;;;;;4.90;100.00;101473.63;4973674;28;20503;-80
2022/10/20 01:19:46;;;;;;;42.05;19.45;;;;;;;5.13;100.00;101523.88;4973276;28;20114;-80
2022/10/20 01:22:34;;;;;;;42.15;19.73;;;;;;;5.09;100.00;101518.25;4973459;28;20513;-79
2022/10/20 01:25:28;;;;;;;40.03;19.08;;;;;;;5.02;100.00;101509.03;4957575;28;20031;-80
2022/10/20 01:28:11;;;;;;;39.70;18.67;;;;;;;4.96;100.00;101516.44;4973841;28;20022;-80
2022/10/20 01:30:43;;;;;;;34.47;18.52;;;;;;;4.87;100.00;101514.91;4957683;28;20027;-81
2022/10/20 01:33:28;;;;;;;36.75;17.88;;;;;;;4.82;100.00;101521.03;4973044;28;20077;-81
2022/10/20 01:36:00;;;;;;;29.75;17.30;;;;;;;4.73;100.00;101512.25;4973144;28;20464;-81
2022/10/20 01:38:26;;;;;;;37.75;18.75;;;;;;;4.74;100.00;101522.34;4973494;28;20027;-80
2022/10/20 01:40:55;;;;;;;26.30;15.90;;;;;;;4.67;100.00;101519.59;4974436;28;20391;-82
2022/10/20 01:43:23;;;;;;;31.13;17.20;;;;;;;4.56;100.00;101499.13;4974456;28;20046;-79
2022/10/20 01:45:49;;;;;;;29.58;16.50;;;;;;;4.59;100.00;101514.44;4974076;28;20043;-82
2022/10/20 01:48:19;;;;;;;28.13;17.30;;;;;;;4.48;100.00;101508.91;4958913;28;20027;-80
2022/10/20 01:50:44;;;;;;;26.20;14.85;;;;;;;4.51;100.00;101513.72;4943163;28;20034;-81
2022/10/20 01:53:10;;;;;;;25.08;15.77;;;;;;;4.42;100.00;101516.25;4958854;28;20121;-81
2022/10/20 01:55:36;;;;;;;31.65;16.55;;;;;;;4.38;100.00;101521.13;4975009;28;20518;-80
2022/10/20 01:58:17;;;;;;;29.98;16.63;;;;;;;4.35;100.00;101528.44;4958755;28;20368;-80
2022/10/20 02:00:45;;;;;;;22.90;14.00;;;;;;;3.84;100.00;101474.78;4976291;28;20026;-81
2022/10/20 02:04:04;;;;;;;27.55;15.68;;;;;;;4.23;100.00;101523.31;4958881;28;20122;-80
2022/10/20 02:06:42;;;;;;;25.85;15.05;;;;;;;4.16;100.00;101514.91;4935193;29;20031;-80
2022/10/20 02:09:14;;;;;;;26.73;14.52;;;;;;;4.11;100.00;101517.38;4967385;28;20130;-81
2022/10/20 02:12:06;;;;;;;27.70;14.27;;;;;;;4.05;100.00;101514.22;4974058;28;20035;-81
2022/10/20 02:14:34;;;;;;;25.10;13.75;;;;;;;3.97;100.00;101513.44;4974919;28;20033;-81
2022/10/20 02:17:03;;;;;;;24.35;13.90;;;;;;;3.91;100.00;101515.16;4974495;28;20050;-79
2022/10/20 02:19:34;;;;;;;28.83;13.95;;;;;;;3.87;100.00;101519.22;4958454;28;20113;-79
2022/10/20 02:22:00;;;;;;;29.98;15.73;;;;;;;3.81;100.00;101510.34;4958313;28;20031;-81
2022/10/20 02:24:29;;;;;;;26.75;16.77;;;;;;;3.80;100.00;101522.06;4958406;28;20022;-80
2022/10/20 02:26:56;;;;;;;24.27;15.82;;;;;;;3.75;100.00;101523.31;4974417;28;20059;-81
2022/10/20 02:29:27;;;;;;;25.65;15.23;;;;;;;3.68;100.00;101512.06;4958204;28;20018;-80
2022/10/20 02:31:53;;;;;;;25.13;14.85;;;;;;;3.63;100.00;101516.13;4958149;28;20114;-79
2022/10/20 02:34:19;;;;;;;22.42;13.85;;;;;;;3.57;100.00;101522.66;4974338;28;20527;-80
2022/10/20 02:36:46;;;;;;;25.23;14.57;;;;;;;3.59;100.00;101531.50;4958019;28;20026;-80
2022/10/20 02:39:17;;;;;;;25.45;14.77;;;;;;;3.41;100.00;101505.41;4974212;28;20023;-79
2022/10/20 02:41:42;;;;;;;28.00;14.73;;;;;;;3.36;100.00;101505.84;4958459;28;20022;-80
2022/10/20 02:44:07;;;;;;;27.83;14.93;;;;;;;3.42;100.00;101516.31;4974276;28;20038;-80
2022/10/20 02:46:33;;;;;;;26.48;15.85;;;;;;;3.33;100.00;101509.50;4973788;28;20031;-80
2022/10/20 02:48:58;;;;;;;26.45;15.13;;;;;;;3.31;100.00;101506.28;4974293;28;20022;-80
2022/10/20 02:51:26;;;;;;;29.40;16.38;;;;;;;3.41;100.00;101523.16;4975148;28;20464;-81
2022/10/20 02:53:53;;;;;;;23.60;14.65;;;;;;;3.35;100.00;101521.19;4975501;28;20019;-81
2022/10/20 02:56:19;;;;;;;23.45;13.43;;;;;;;3.36;100.00;101523.59;4958684;28;20045;-81
2022/10/20 02:58:46;;;;;;;25.65;13.95;;;;;;;3.10;100.00;101493.91;4974080;28;20380;-82
2022/10/20 03:01:21;;;;;;;23.75;15.05;;;;;;;3.22;100.00;101499.09;4973940;28;20480;-80
2022/10/20 03:03:46;;;;;;;27.13;15.10;;;;;;;3.19;100.00;101493.44;4973819;28;20383;-80
2022/10/20 03:06:16;;;;;;;24.92;14.27;;;;;;;3.30;100.00;101524.44;4957517;28;20468;-81
2022/10/20 03:08:42;;;;;;;25.73;14.85;;;;;;;3.26;100.00;101527.31;4957835;28;20038;-81
2022/10/20 03:11:07;;;;;;;27.48;14.95;;;;;;;3.14;100.00;101505.97;4973548;28;20387;-81
2022/10/20 03:13:32;;;;;;;24.15;14.63;;;;;;;2.92;100.00;101481.09;4972117;28;20018;-81
2022/10/20 03:15:58;;;;;;;22.90;13.90;;;;;;;3.15;100.00;101521.72;4971326;28;20033;-82
2022/10/20 03:18:26;;;;;;;23.55;14.55;;;;;;;3.15;100.00;101518.88;4955520;28;20015;-81
2022/10/20 03:20:59;;;;;;;24.33;15.25;;;;;;;3.06;100.00;101512.09;4971458;28;20031;-83
2022/10/20 03:23:25;;;;;;;25.17;14.48;;;;;;;2.97;100.00;101515.38;4954321;28;20029;-81
2022/10/20 03:25:55;;;;;;;33.30;15.98;;;;;;;3.02;100.00;101523.41;4971262;28;20391;-81
2022/10/20 03:28:28;;;;;;;26.85;13.88;;;;;;;2.91;100.00;101507.72;4971270;28;20019;-81
2022/10/20 03:30:55;;;;;;;25.92;14.63;;;;;;;2.81;100.00;101491.66;4972098;28;20022;-82
2022/10/20 03:33:26;;;;;;;27.13;14.95;;;;;;;3.01;100.00;101527.44;4971812;28;20029;-81
2022/10/20 03:35:56;;;;;;;25.75;14.27;;;;;;;3.08;100.00;101543.56;4971231;28;20034;-84
2022/10/20 03:38:25;;;;;;;23.52;14.20;;;;;;;3.09;100.00;101539.50;4971364;28;20069;-81
2022/10/20 03:40:56;;;;;;;23.48;14.57;;;;;;;2.99;100.00;101535.50;4971197;28;20554;-80
2022/10/20 03:43:23;;;;;;;30.00;14.93;;;;;;;3.01;100.00;101524.63;4955041;28;20089;-80
2022/10/20 03:45:49;;;;;;;22.67;14.02;;;;;;;2.93;100.00;101506.13;4955354;28;20034;-80
2022/10/20 03:48:14;;;;;;;26.42;16.02;;;;;;;3.06;100.00;101540.31;4973222;28;20034;-80
2022/10/20 03:50:45;;;;;;;25.27;14.75;;;;;;;3.09;100.00;101539.50;4957539;28;20109;-80
2022/10/20 03:53:12;;;;;;;28.17;15.13;;;;;;;3.08;100.00;101544.31;4957533;28;20045;-81
2022/10/20 03:55:37;;;;;;;25.83;14.10;;;;;;;2.91;100.00;101510.56;4957270;28;20475;-80
2022/10/20 03:58:05;;;;;;;23.73;14.95;;;;;;;2.88;100.00;101506.53;4973240;28;20409;-81
2022/10/20 04:00:35;;;;;;;24.13;14.07;;;;;;;2.99;100.00;101532.69;4974463;28;20109;-80
2022/10/20 04:03:03;;;;;;;23.38;13.70;;;;;;;2.85;100.00;101513.00;4957643;28;20022;-80
2022/10/20 04:05:29;;;;;;;25.23;15.15;;;;;;;2.92;100.00;101537.56;4973296;28;20026;-80
2022/10/20 04:07:55;;;;;;;24.67;14.65;;;;;;;2.78;100.00;101516.63;4973113;28;20395;-80
2022/10/20 04:10:23;;;;;;;27.80;14.20;;;;;;;2.69;100.00;101510.63;4973025;28;20035;-80
2022/10/20 04:12:49;;;;;;;25.02;15.45;;;;;;;2.29;100.00;101458.38;4973311;28;20081;-80
2022/10/20 04:15:17;;;;;;;27.15;15.32;;;;;;;2.60;100.00;101506.63;4956857;28;20038;-81
2022/10/20 04:17:46;;;;;;;25.63;15.05;;;;;;;2.63;100.00;101523.56;4973375;28;20019;-81
2022/10/20 04:20:15;;;;;;;26.92;15.98;;;;;;;2.60;100.00;101520.75;4973025;28;20033;-80
2022/10/20 04:22:45;;;;;;;30.60;16.15;;;;;;;2.56;100.00;101523.59;4974417;28;20404;-82
2022/10/20 04:25:16;;;;;;;30.13;15.60;;;;;;;2.37;100.00;101500.69;4972859;28;20019;-80
2022/10/20 04:27:44;;;;;;;29.05;15.13;;;;;;;2.57;100.00;101532.84;4957021;28;20023;-80
2022/10/20 04:30:12;;;;;;;26.58;14.95;;;;;;;2.53;100.00;101532.88;4974315;28;20042;-81
2022/10/20 04:32:39;;;;;;;27.23;14.38;;;;;;;2.53;100.00;101530.06;4972673;28;20109;-81
2022/10/20 04:35:05;;;;;;;33.47;15.38;;;;;;;2.48;100.00;101519.19;4957903;28;20488;-81
2022/10/20 04:37:33;;;;;;;27.17;15.23;;;;;;;2.53;100.00;101524.41;4960235;28;20019;-80
2022/10/20 04:39:58;;;;;;;27.35;15.85;;;;;;;2.52;100.00;101508.69;4960410;28;20031;-81
2022/10/20 04:42:25;;;;;;;26.90;15.20;;;;;;;2.52;100.00;101502.25;4960069;28;20026;-81
2022/10/20 04:44:57;;;;;;;28.73;15.52;;;;;;;2.51;100.00;101492.16;4975135;28;20047;-80
2022/10/20 04:47:37;;;;;;;30.48;17.15;;;;;;;2.51;100.00;101498.63;4976156;28;20066;-79
2022/10/20 04:50:07;;;;;;;29.98;16.17;;;;;;;2.47;100.00;101500.66;4978316;28;20444;-80
2022/10/20 04:52:36;;;;;;;25.83;15.57;;;;;;;2.15;100.00;101449.16;4961759;28;20054;-85
2022/10/20 04:55:03;;;;;;;28.50;16.00;;;;;;;2.23;100.00;101476.97;4960693;28;20138;-81
2022/10/20 04:57:29;;;;;;;31.63;16.52;;;;;;;2.24;100.00;101475.72;4978502;28;20027;-84
2022/10/20 04:59:54;;;;;;;35.72;18.92;;;;;;;2.29;100.00;101492.22;4978422;28;20038;-87
2022/10/20 05:02:20;;;;;;;38.63;17.65;;;;;;;2.18;100.00;101482.22;4977098;28;20349;-85
2022/10/20 05:04:47;;;;;;;42.13;17.63;;;;;;;2.22;100.00;101492.25;4977955;28;20034;-82
2022/10/20 05:07:13;;;;;;;40.28;19.52;;;;;;;2.08;100.00;101469.75;4976757;28;20031;-84
2022/10/20 05:09:39;;;;;;;36.67;17.02;;;;;;;2.10;100.00;101480.59;4977475;28;20019;-85
2022/10/20 05:12:08;;;;;;;37.10;17.52;;;;;;;2.05;100.00;101481.81;4977302;28;20022;-85
2022/10/20 05:14:33;;;;;;;46.60;19.00;;;;;;;1.97;100.00;101468.94;4976893;28;20037;-84
2022/10/20 05:16:59;;;;;;;32.40;17.45;;;;;;;2.04;100.00;101473.78;4944226;28;20090;-83
2022/10/20 05:19:25;;;;;;;31.00;16.02;;;;;;;1.95;100.00;101462.91;4975989;28;20085;-84
2022/10/20 05:21:50;;;;;;;70.95;21.15;;;;;;;2.14;100.00;101496.31;4958704;28;20142;-82
2022/10/20 05:24:17;;;;;;;42.45;18.52;;;;;;;2.09;100.00;101488.28;4959561;28;20496;-84
2022/10/20 05:26:43;;;;;;;42.10;19.05;;;;;;;1.83;100.00;101460.53;4976194;28;20034;-83
2022/10/20 05:29:10;;;;;;;36.80;16.90;;;;;;;2.11;100.00;101490.66;4959048;28;20134;-82
2022/10/20 05:31:41;;;;;;;26.23;14.65;;;;;;;2.07;100.00;101487.88;4958395;28;20538;-82
2022/10/20 05:34:06;;;;;;;26.48;14.60;;;;;;;2.04;100.00;101468.16;4942907;28;20423;-82
2022/10/20 05:36:33;;;;;;;26.25;14.15;;;;;;;2.02;100.00;101471.38;4958688;28;20546;-82
2022/10/20 05:39:01;;;;;;;25.98;14.48;;;;;;;2.11;100.00;101485.03;4958081;28;20521;-83
2022/10/20 05:41:30;;;;;;;26.83;14.30;;;;;;;2.08;100.00;101471.75;4974005;28;20038;-84
2022/10/20 05:44:01;;;;;;;25.63;14.65;;;;;;;2.20;100.00;101474.94;4958743;28;20168;-83
2022/10/20 05:46:30;;;;;;;31.42;15.77;;;;;;;2.28;100.00;101479.38;4973924;28;20062;-82
2022/10/20 05:49:05;;;;;;;29.95;16.25;;;;;;;2.32;100.00;101476.53;4959785;28;20042;-85
2022/10/20 05:51:35;;;;;;;31.38;16.52;;;;;;;2.35;100.00;101482.16;4960570;28;20026;-88
2022/10/20 05:54:02;;;;;;;25.65;15.00;;;;;;;2.29;100.00;101477.34;4961742;28;20474;-89
2022/10/20 05:56:29;;;;;;;37.88;18.13;;;;;;;2.33;100.00;101489.41;4945089;28;20030;-87
2022/10/20 05:58:56;;;;;;;60.13;27.30;;;;;;;2.24;100.00;101498.28;4944101;28;20041;-87
2022/10/20 06:01:37;;;;;;;55.65;26.42;;;;;;;2.29;100.00;101492.22;4977727;28;20030;-89
2022/10/20 06:04:07;;;;;;;51.15;23.85;;;;;;;2.34;100.00;101502.31;4946999;28;20390;-89
2022/10/20 06:06:37;;;;;;;45.40;23.02;;;;;;;2.12;100.00;101462.06;4945125;28;20035;-89
2022/10/20 06:09:05;;;;;;;38.33;17.83;;;;;;;2.18;100.00;101468.91;4976364;28;20034;-86
2022/10/20 06:11:31;;;;;;;44.08;21.05;;;;;;;2.17;100.00;101463.69;4976434;28;20041;-88
2022/10/20 06:13:57;;;;;;;43.53;23.10;;;;;;;2.13;100.00;101460.06;4960282;28;20023;-88
2022/10/20 06:16:28;;;;;;;44.55;23.48;;;;;;;2.29;100.00;101492.22;4975910;28;20031;-88
2022/10/20 06:18:56;;;;;;;50.72;26.10;;;;;;;2.35;100.00;101492.63;4976023;28;20523;-86
2022/10/20 06:21:31;;;;;;;48.95;22.45;;;;;;;2.48;100.00;101495.81;4943361;28;20122;-88
2022/10/20 06:23:58;;;;;;;39.95;22.27;;;;;;;2.43;100.00;101490.59;4957028;28;20069;-86
2022/10/20 06:26:28;;;;;;;38.55;22.75;;;;;;;2.46;100.00;101503.88;4958043;28;20388;-89
2022/10/20 06:28:56;;;;;;;41.75;21.58;;;;;;;2.52;100.00;101502.25;4960339;28;20496;-87
2022/10/20 06:31:28;;;;;;;40.00;22.33;;;;;;;2.57;100.00;101504.66;4959488;28;20365;-85
2022/10/20 06:33:55;;;;;;;42.08;20.70;;;;;;;2.62;100.00;101504.22;4961248;28;20468;-88
2022/10/20 06:36:36;;;;;;;40.60;22.40;;;;;;;2.69;100.00;101507.81;4955666;28;20035;-85
2022/10/20 06:39:07;;;;;;;36.43;19.87;;;;;;;2.74;100.00;101506.59;4981407;28;20038;-85
2022/10/20 06:41:37;;;;;;;35.15;18.63;;;;;;;2.60;100.00;101484.06;4970916;28;20290;-85
2022/10/20 06:44:06;;;;;;;37.90;19.65;;;;;;;2.52;100.00;101465.56;4979242;28;20027;-85
2022/10/20 06:46:35;;;;;;;38.38;20.90;;;;;;;2.90;100.00;101509.75;4957585;28;20047;-86
2022/10/20 06:49:06;;;;;;;40.58;20.75;;;;;;;2.76;100.00;101475.94;4978656;28;20096;-84
2022/10/20 06:51:37;;;;;;;37.33;20.40;;;;;;;2.94;100.00;101501.25;4962100;28;20399;-84
2022/10/20 06:54:08;;;;;;;40.78;19.05;;;;;;;3.07;100.00;101510.88;4978145;28;20321;-80
2022/10/20 06:56:50;;;;;;;33.92;19.83;;;;;;;3.13;100.00;101507.19;4961676;28;20078;-82
2022/10/20 06:59:17;;;;;;;40.30;19.90;;;;;;;3.18;100.00;101508.81;4974379;28;20674;-82
2022/10/20 07:01:42;;;;;;;35.00;18.45;;;;;;;3.22;100.00;101484.16;4981540;28;20081;-80
2022/10/20 07:04:13;;;;;;;32.47;18.80;;;;;;;3.56;100.00;101521.84;4973415;28;20042;-80
2022/10/20 07:06:44;;;;;;;31.45;18.85;;;;;;;3.74;100.00;101515.25;4941370;28;20498;-82
2022/10/20 07:09:19;;;;;;;31.67;18.33;;;;;;;4.03;100.00;101511.78;4959282;28;20089;-85
2022/10/20 07:11:49;;;;;;;27.45;17.35;;;;;;;4.86;100.00;101516.13;4974353;28;20030;-83
2022/10/20 07:14:15;;;;;;;27.30;17.02;;;;;;;5.95;100.00;101512.88;4941547;28;20042;-80
2022/10/20 07:16:44;;;;;;;36.08;15.48;;;;;;;7.01;100.00;101512.88;4973157;28;20019;-82
2022/10/20 07:19:11;;;;;;;26.80;14.18;;;;;;;8.05;100.00;101501.47;4973710;28;20051;-80
2022/10/20 07:21:37;;;;;;;25.23;13.00;;;;;;;9.09;100.00;101511.59;4956709;28;20035;-81
2022/10/20 07:24:03;;;;;;;18.17;11.43;;;;;;;9.80;100.00;101503.66;4972682;28;20049;-80
2022/10/20 07:26:31;;;;;;;17.83;11.98;;;;;;;10.49;100.00;101501.66;4956747;28;20109;-81
2022/10/20 07:28:59;;;;;;;19.15;11.32;;;;;;;11.01;100.00;101497.31;4937317;28;20027;-81
2022/10/20 07:31:28;;;;;;;30.15;11.70;;;;;;;11.46;100.00;101503.31;4922263;29;20027;-80
2022/10/20 07:34:04;;;;;;;20.60;11.25;;;;;;;11.86;100.00;101497.59;4954661;28;20029;-80
2022/10/20 07:36:30;;;;;;;17.05;11.35;;;;;;;12.25;100.00;101496.72;4953842;28;20102;-80
2022/10/20 07:38:58;;;;;;;20.13;10.60;;;;;;;12.64;100.00;101492.16;4937739;29;20023;-80
2022/10/20 07:41:24;;;;;;;24.95;12.15;;;;;;;13.13;100.00;101503.41;4954077;29;20023;-80
2022/10/20 07:43:50;;;;;;;19.67;11.05;;;;;;;13.53;100.00;101499.47;4953722;29;20090;-80
2022/10/20 07:46:16;;;;;;;19.73;10.55;;;;;;;13.76;100.00;101507.34;4951844;29;20043;-80
2022/10/20 07:48:42;;;;;;;20.98;10.85;;;;;;;13.86;98.89;101493.72;4936226;29;20038;-79
2022/10/20 07:51:16;;;;;;;21.48;12.10;;;;;;;14.16;98.25;101500.44;4952221;29;20027;-81
2022/10/20 07:53:44;;;;;;;37.97;13.98;;;;;;;14.24;94.51;101511.06;4951578;29;20070;-79
2022/10/20 07:56:10;;;;;;;16.83;10.63;;;;;;;14.31;92.95;101495.53;4951505;29;20031;-80
2022/10/20 07:58:35;;;;;;;17.60;10.35;;;;;;;14.39;91.35;101506.16;4952419;29;20025;-78
2022/10/20 08:01:01;;;;;;;14.25;9.70;;;;;;;14.40;88.57;101521.34;4955642;29;20082;-80
2022/10/20 08:03:26;;;;;;;16.42;9.65;;;;;;;14.32;87.02;101511.50;4972703;28;20023;-81
2022/10/20 08:05:51;;;;;;;21.92;10.52;;;;;;;14.22;88.63;101499.28;4974397;28;20026;-80
2022/10/20 08:08:17;;;;;;;14.27;9.50;;;;;;;14.29;90.28;101498.88;4973427;28;20030;-79
2022/10/20 08:10:42;;;;;;;12.77;8.65;;;;;;;14.19;87.15;101494.47;4975580;28;20027;-79
2022/10/20 08:13:07;;;;;;;16.85;9.63;;;;;;;14.08;87.28;101504.97;4960830;28;20027;-80
2022/10/20 08:15:35;;;;;;;14.95;8.77;;;;;;;14.07;89.48;101491.88;4977771;28;20031;-80
2022/10/20 08:18:01;;;;;;;14.00;9.10;;;;;;;14.05;90.11;101497.28;4977948;28;20423;-80
2022/10/20 08:20:26;;;;;;;14.70;7.93;;;;;;;13.92;87.10;101501.22;4960613;28;20023;-79
2022/10/20 08:22:51;;;;;;;15.63;8.32;;;;;;;13.74;86.45;101501.28;4960603;28;20027;-79
2022/10/20 08:25:17;;;;;;;11.38;8.38;;;;;;;13.49;87.68;101499.59;4976994;28;20174;-80
2022/10/20 08:27:42;;;;;;;15.95;8.82;;;;;;;13.27;89.64;101490.44;4976553;28;20086;-80
2022/10/20 08:30:08;;;;;;;11.90;8.15;;;;;;;13.07;91.12;101481.56;4976512;28;20124;-79
2022/10/20 08:32:36;;;;;;;11.50;8.07;;;;;;;13.17;93.61;101494.63;4977662;28;20071;-79
2022/10/20 08:35:02;;;;;;;13.43;8.13;;;;;;;13.11;93.83;101485.84;4977572;28;20041;-80
2022/10/20 08:37:31;;;;;;;16.00;8.63;;;;;;;13.02;93.76;101494.47;4976566;28;20097;-79
2022/10/20 08:39:57;;;;;;;10.82;8.93;;;;;;;12.98;95.04;101476.66;4960299;28;20024;-80
2022/10/20 08:42:22;;;;;;;13.60;8.75;;;;;;;12.89;94.34;101482.41;4976285;28;20029;-80
2022/10/20 08:44:48;;;;;;;13.02;8.85;;;;;;;12.79;95.91;101488.63;4976398;28;20476;-80
2022/10/20 08:47:40;;;;;;;26.80;9.60;;;;;;;12.70;95.67;101475.09;4977217;28;20046;-80
2022/10/20 08:50:08;;;;;;;56.97;12.85;;;;;;;12.46;96.81;101472.06;4955448;28;20043;-79
2022/10/20 08:52:34;;;;;;;16.17;8.15;;;;;;;12.32;97.77;101480.47;4977113;28;20463;-80
2022/10/20 08:55:02;;;;;;;32.90;10.10;;;;;;;12.15;98.54;101475.03;4977891;28;20034;-80
2022/10/20 08:57:30;;;;;;;12.88;7.50;;;;;;;11.98;99.26;101465.13;4977276;28;20027;-80
2022/10/20 09:00:07;;;;;;;82.72;16.67;;;;;;;11.71;100.00;101425.78;4977101;28;20026;-80
2022/10/20 09:02:37;;;;;;;10.80;6.93;;;;;;;11.72;100.00;101447.41;4977427;28;20093;-79
2022/10/20 09:05:06;;;;;;;17.25;7.53;;;;;;;11.80;100.00;101459.38;4976202;28;20097;-81
2022/10/20 09:07:37;;;;;;;15.15;7.63;;;;;;;11.75;100.00;101452.22;4975941;28;20034;-80
2022/10/20 09:10:15;;;;;;;17.48;7.25;;;;;;;11.87;100.00;101466.84;4975882;28;20026;-80
2022/10/20 09:12:44;;;;;;;46.72;12.48;;;;;;;11.74;100.00;101452.66;4975781;28;20034;-80
2022/10/20 09:15:11;;;;;;;13.27;6.28;;;;;;;11.87;100.00;101467.66;4960276;28;20030;-79
2022/10/20 09:17:42;;;;;;;20.75;6.18;;;;;;;11.88;99.73;101459.84;4975799;28;20451;-80
2022/10/20 09:20:17;;;;;;;25.17;7.38;;;;;;;11.87;98.49;101470.50;4975919;28;20027;-80
2022/10/20 09:22:43;;;;;;;71.50;13.20;;;;;;;11.72;97.94;101470.31;4958546;28;20023;-80
2022/10/20 09:25:17;;;;;;;13.27;6.50;;;;;;;11.81;99.21;101470.34;4975822;28;20046;-80
2022/10/20 09:27:46;;;;;;;73.82;11.73;;;;;;;11.83;99.17;101467.00;4976194;28;20026;-80
2022/10/20 09:30:14;;;;;;;21.10;6.35;;;;;;;11.82;98.22;101456.81;4977555;28;20031;-79
2022/10/20 09:32:39;;;;;;;158.20;24.98;;;;;;;11.87;98.96;101459.06;4976844;28;20034;-80
2022/10/20 09:35:14;;;;;;;12.18;5.70;;;;;;;11.95;98.12;101462.44;4977315;28;20031;-80
2022/10/20 09:37:40;;;;;;;142.45;23.30;;;;;;;11.99;98.18;101452.41;4978003;28;20153;-82
2022/10/20 09:40:13;;;;;;;21.60;7.28;;;;;;;12.10;99.89;101451.94;4960640;28;20042;-81
2022/10/20 09:42:47;;;;;;;86.55;15.95;;;;;;;12.16;99.83;101445.09;4975717;28;20031;-80
2022/10/20 09:45:21;;;;;;;143.15;23.40;;;;;;;12.36;98.66;101452.44;4975379;28;20022;-81
2022/10/20 09:47:50;;;;;;;12.48;6.00;;;;;;;12.39;96.18;101446.59;4975455;28;20046;-80
2022/10/20 09:50:24;;;;;;;10.50;4.45;;;;;;;12.21;91.45;101444.47;4975308;28;20033;-80
2022/10/20 09:52:49;;;;;;;8.75;4.35;;;;;;;12.24;92.16;101446.41;4975848;28;20027;-80
2022/10/20 09:55:36;;;;;;;13.50;5.95;;;;;;;12.27;93.22;101456.09;4960089;28;20042;-80
2022/10/20 09:58:03;;;;;;;9.05;4.53;;;;;;;12.11;93.04;101424.91;4975843;28;20026;-81
2022/10/20 10:00:31;;;;;;;12.15;5.60;;;;;;;12.21;93.96;101438.72;4975906;28;20452;-81
2022/10/20 10:03:20;;;;;;;9.18;4.60;;;;;;;12.22;92.00;101439.53;4976740;28;20058;-81
2022/10/20 10:05:53;;;;;;;8.20;4.47;;;;;;;12.14;92.76;101432.53;4976894;28;20026;-80
2022/10/20 10:08:20;;;;;;;11.52;4.70;;;;;;;12.15;92.08;101437.00;4976949;28;20037;-79
2022/10/20 10:11:00;;;;;;;7.63;3.78;;;;;;;12.12;92.31;101433.00;4975005;28;20110;-80
2022/10/20 10:13:28;;;;;;;6.45;4.05;;;;;;;12.10;92.33;101429.03;4975309;28;20027;-81
2022/10/20 10:16:05;;;;;;;6.47;3.78;;;;;;;12.18;91.73;101433.16;4976458;28;20109;-80
2022/10/20 10:18:31;;;;;;;5.72;3.60;;;;;;;12.04;91.15;101426.00;4958512;28;20106;-81
2022/10/20 10:20:59;;;;;;;9.40;4.10;;;;;;;12.08;92.14;101428.69;4975149;28;20050;-81
2022/10/20 10:23:26;;;;;;;8.50;4.00;;;;;;;11.97;93.19;101411.16;4974784;28;20429;-81
2022/10/20 10:25:52;;;;;;;12.85;4.18;;;;;;;11.97;92.45;101419.75;4958479;28;20026;-81
2022/10/20 10:28:38;;;;;;;7.80;4.72;;;;;;;11.97;93.09;101417.69;4974834;28;20026;-81
2022/10/20 10:31:17;;;;;;;18.05;4.47;;;;;;;11.91;93.32;101407.38;4974078;28;20043;-81
2022/10/20 10:33:42;;;;;;;9.15;3.28;;;;;;;11.95;92.48;101413.72;4973997;28;20062;-80
2022/10/20 10:36:34;;;;;;;12.40;5.00;;;;;;;11.93;90.57;101410.53;4976373;28;20046;-81
2022/10/20 10:39:01;;;;;;;5.82;3.42;;;;;;;11.81;90.19;101410.19;4975231;28;20102;-81
2022/10/20 10:41:48;;;;;;;7.80;3.40;;;;;;;11.74;89.45;101404.00;4974790;28;20030;-81
2022/10/20 10:44:19;;;;;;;6.78;2.97;;;;;;;11.65;89.04;101403.97;4975538;28;20029;-80
2022/10/20 10:47:13;;;;;;;15.82;4.22;;;;;;;11.56;89.47;101403.97;4973867;28;20053;-81
2022/10/20 10:50:09;;;;;;;14.20;3.22;;;;;;;11.49;88.86;101401.38;4974168;28;20495;-81
2022/10/20 10:52:38;;;;;;;12.90;3.35;;;;;;;11.44;88.53;101399.94;4973924;28;20065;-80
2022/10/20 10:55:44;;;;;;;7.90;3.38;;;;;;;11.35;87.82;101399.91;4975740;28;20031;-81
2022/10/20 10:58:18;;;;;;;8.73;3.53;;;;;;;11.29;87.35;101381.75;4896916;29;20033;-81
2022/10/20 11:01:06;;;;;;;7.85;3.15;;;;;;;11.17;89.19;101371.25;4896730;29;20024;-82
2022/10/20 11:04:02;;;;;;;7.97;3.55;;;;;;;11.16;89.80;101381.09;4928779;28;20042;-82
2022/10/20 11:07:08;;;;;;;6.22;3.83;;;;;;;11.06;90.47;101365.13;4957911;28;20023;-81
2022/10/20 11:09:42;;;;;;;9.35;3.38;;;;;;;10.94;90.98;101359.03;4957919;28;20022;-80
2022/10/20 11:12:29;;;;;;;5.93;3.13;;;;;;;10.99;89.38;101363.34;4974599;28;20030;-82
2022/10/20 11:15:27;;;;;;;4.63;2.90;;;;;;;10.94;89.82;101356.16;4973963;28;20452;-81
2022/10/20 11:18:30;;;;;;;6.70;3.40;;;;;;;10.95;89.45;101354.09;4977312;28;20077;-81
2022/10/20 11:21:08;;;;;;;8.02;3.50;;;;;;;10.90;90.17;101351.84;4974930;28;20026;-81
2022/10/20 11:24:04;;;;;;;8.88;2.90;;;;;;;10.99;91.03;101349.84;4976769;28;20082;-82
2022/10/20 11:26:33;;;;;;;5.78;2.83;;;;;;;10.99;90.29;101335.53;4975239;28;20045;-84
2022/10/20 11:29:03;;;;;;;13.48;2.90;;;;;;;10.99;90.29;101320.44;4975614;28;20036;-83